METAR AND TAF INFORMATION
METAR FOR HSSS
ADDS - METARS form results

(0026 UTC 25 August 2019)
Data provider http://aviationweather.gov/metar/data/
 
METAR text: HSSS 250000Z 18010KT CAVOK 28/21 Q1012 NOSIG
Conditions at: HSSS (KHARTOUM (CIV/MI, SD) observed 0000 UTC 25 August 2019
Temperature: 28.0°C (82°F)
Dewpoint: 21.0°C (70°F) [RH = 66%]
Pressure (altimeter): 29.88 inches Hg (1012.0 mb)
Winds: from the S (180 degrees) at 12 MPH (10 knots; 5.1 m/s)
Visibility: 6 or more miles (10+ km)
Ceiling: ceiling and visibility are OK
Clouds: unknown
Weather: no significant weather observed at this time

METAR text: HSSS 242330Z 18010KT CAVOK 28/20 Q1012 NOSIG
Conditions at: HSSS (KHARTOUM (CIV/MI, SD) observed 2330 UTC 24 August 2019
Temperature: 28.0°C (82°F)
Dewpoint: 20.0°C (68°F) [RH = 62%]
Pressure (altimeter): 29.88 inches Hg (1012.0 mb)
Winds: from the S (180 degrees) at 12 MPH (10 knots; 5.1 m/s)
Visibility: 6 or more miles (10+ km)
Ceiling: ceiling and visibility are OK
Clouds: unknown
Weather: no significant weather observed at this time

Forecast for: COR
Text: TAF COR HSSS 242300Z 2500/2509 22008G18KT CAVOK
Forecast period: 0000 to 0900 UTC 25 August 2019
Forecast type: FROM: standard forecast or significant change
Winds: from the SW (220 degrees) at 9 MPH (8 knots; 4.1 m/s)
gusting to 21 MPH (18 knots; 9.3 m/s)
Visibility: 6 or more miles 10+ km)
Ceiling: unknown
Clouds: missing
Weather: NSW  (no significant weather)

 AIRPORT MAP

 RUNWAY INFORMATION
Runway 18 Runway length 9751 ft Runway width 148 ft
Runway elevation 1265 ft Runway displaced threshold 0 ft Runway heading 177
Runway 36 Runway length 9751 ft Runway width 148 ft
Runway elevation 1260 ft Runway displaced threshold 0 ft Runway heading 357

 AIRPORT FREQUENCIES
Type APP Name Khartoum A Frequency 124.7 MHZ
Type EMR Name FIRE Frequency 121.9 MHZ
Type North Area Name North Sect Frequency 125.4 MHZ
Type South Area Name South Sect Frequency 127.3 MHZ
Type TWR Name Khartoum T Frequency 119.2 MHZ

 AIRPORT NEAR NAVIGATION AIDS
Type VOR-DME Name Khartoum Frequency 112100 KHZ



Powered by Virtual Airlines Manager [v2.6.2]